Time,TemperatureF,DewpointF,PressureIn,WindDirection,WindDirectionDegrees,WindSpeedMPH,WindSpeedGustMPH,Humidity,HourlyPrecipIn,Conditions,Clouds,dailyrainin,SoftwareType,DateUTC
2013-09-22 00:14:00,66.0,62.0,29.65,WNW,286,0.0,7.0,86,0.00,,,0.00,weatherlink.com 1.10,2013-09-22 04:14:00,
2013-09-22 00:30:00,65.7,61.0,29.65,WSW,258,4.0,7.0,86,0.00,,,0.00,weatherlink.com 1.10,2013-09-22 04:30:00,
2013-09-22 00:47:00,66.0,62.0,29.64,NNW,327,1.0,15.0,86,0.00,,,0.00,weatherlink.com 1.10,2013-09-22 04:47:00,
2013-09-22 01:03:00,65.8,62.0,29.63,WSW,252,2.0,7.0,88,0.00,,,0.00,weatherlink.com 1.10,2013-09-22 05:03:00,
2013-09-22 01:19:00,64.9,62.0,29.62,North,355,0.0,7.0,90,0.00,,,0.00,weatherlink.com 1.10,2013-09-22 05:19:00,
2013-09-22 01:35:00,64.2,62.0,29.61,NW,312,0.0,4.0,93,0.00,,,0.00,weatherlink.com 1.10,2013-09-22 05:35:00,
2013-09-22 01:53:00,63.5,62.0,29.60,WSW,244,4.0,11.0,95,0.01,,,0.01,weatherlink.com 1.10,2013-09-22 05:53:00,
2013-09-22 02:09:00,63.8,62.0,29.59,West,275,0.0,8.0,95,0.01,,,0.01,weatherlink.com 1.10,2013-09-22 06:09:00,
2013-09-22 02:25:00,64.1,62.0,29.58,West,270,1.0,9.0,94,0.02,,,0.02,weatherlink.com 1.10,2013-09-22 06:25:00,
2013-09-22 02:41:00,64.1,63.0,29.58,WSW,248,4.0,7.0,95,0.04,,,0.04,weatherlink.com 1.10,2013-09-22 06:41:00,
2013-09-22 02:59:00,64.4,63.0,29.57,WSW,249,2.0,6.0,95,0.07,,,0.08,weatherlink.com 1.10,2013-09-22 06:59:00,
2013-09-22 03:15:00,63.1,62.0,29.59,West,280,0.0,9.0,95,0.27,,,0.28,weatherlink.com 1.10,2013-09-22 07:15:00,
2013-09-22 03:31:00,61.6,60.0,29.58,WSW,252,1.0,7.0,95,0.32,,,0.35,weatherlink.com 1.10,2013-09-22 07:31:00,
2013-09-22 03:48:00,60.8,60.0,29.58,WSW,249,1.0,5.0,96,0.37,,,0.42,weatherlink.com 1.10,2013-09-22 07:48:00,
2013-09-22 04:04:00,60.6,60.0,29.58,WSW,251,2.0,2.0,97,0.26,,,0.47,weatherlink.com 1.10,2013-09-22 08:04:00,
2013-09-22 04:20:00,60.4,60.0,29.60,NNW,344,1.0,7.0,97,0.18,,,0.49,weatherlink.com 1.10,2013-09-22 08:20:00,
2013-09-22 04:36:00,59.7,59.0,29.59,WSW,258,0.0,5.0,96,0.12,,,0.50,weatherlink.com 1.10,2013-09-22 08:36:00,
2013-09-22 04:53:00,59.3,58.0,29.60,WSW,237,3.0,6.0,97,0.07,,,0.50,weatherlink.com 1.10,2013-09-22 08:53:00,
2013-09-22 05:09:00,58.9,58.0,29.60,WSW,242,3.0,6.0,97,0.05,,,0.52,weatherlink.com 1.10,2013-09-22 09:09:00,
2013-09-22 05:25:00,58.4,57.0,29.61,NW,306,3.0,7.0,96,0.06,,,0.55,weatherlink.com 1.10,2013-09-22 09:25:00,
2013-09-22 05:41:00,58.0,57.0,29.61,West,264,0.0,8.0,96,0.06,,,0.56,weatherlink.com 1.10,2013-09-22 09:41:00,
2013-09-22 05:59:00,57.6,57.0,29.61,WSW,242,2.0,5.0,97,0.06,,,0.57,weatherlink.com 1.10,2013-09-22 09:59:00,
2013-09-22 06:15:00,57.4,57.0,29.61,WNW,287,0.0,8.0,97,0.04,,,0.57,weatherlink.com 1.10,2013-09-22 10:15:00,
2013-09-22 06:32:00,57.4,57.0,29.61,WSW,248,3.0,9.0,97,0.02,,,0.57,weatherlink.com 1.10,2013-09-22 10:32:00,
2013-09-22 06:48:00,57.5,57.0,29.61,WSW,245,3.0,7.0,97,0.01,,,0.57,weatherlink.com 1.10,2013-09-22 10:48:00,
2013-09-22 07:04:00,57.5,56.0,29.61,WSW,237,3.0,9.0,96,0.00,,,0.57,weatherlink.com 1.10,2013-09-22 11:04:00,
2013-09-22 07:21:00,57.5,56.0,29.62,WSW,248,0.0,11.0,96,0.00,,,0.57,weatherlink.com 1.10,2013-09-22 11:21:00,
2013-09-22 07:37:00,57.6,56.0,29.63,SW,233,11.0,12.0,95,0.00,,,0.57,weatherlink.com 1.10,2013-09-22 11:37:00,
2013-09-22 07:53:00,57.6,56.0,29.62,WSW,249,6.0,11.0,95,0.00,,,0.57,weatherlink.com 1.10,2013-09-22 11:53:00,
2013-09-22 08:10:00,57.5,56.0,29.62,WNW,296,2.0,10.0,95,0.00,,,0.57,weatherlink.com 1.10,2013-09-22 12:10:00,
2013-09-22 08:26:00,57.5,56.0,29.62,WSW,249,6.0,14.0,96,0.01,,,0.58,weatherlink.com 1.10,2013-09-22 12:26:00,
2013-09-22 08:42:00,57.5,56.0,29.64,ESE,107,3.0,12.0,95,0.01,,,0.58,weatherlink.com 1.10,2013-09-22 12:42:00,
2013-09-22 08:58:00,57.3,56.0,29.64,SW,217,1.0,10.0,95,0.01,,,0.58,weatherlink.com 1.10,2013-09-22 12:58:00,
2013-09-22 09:15:00,57.8,55.0,29.64,WNW,292,2.0,13.0,91,0.01,,,0.58,weatherlink.com 1.10,2013-09-22 13:15:00,
2013-09-22 09:31:00,57.4,55.0,29.64,West,272,9.0,10.0,92,0.00,,,0.58,weatherlink.com 1.10,2013-09-22 13:31:00,
2013-09-22 09:48:00,57.6,55.0,29.64,West,260,2.0,11.0,90,0.00,,,0.58,weatherlink.com 1.10,2013-09-22 13:48:00,
2013-09-22 10:04:00,57.1,53.0,29.65,WNW,286,4.0,11.0,86,0.00,,,0.58,weatherlink.com 1.10,2013-09-22 14:04:00,
2013-09-22 10:20:00,57.7,53.0,29.65,SW,235,4.0,10.0,84,0.00,,,0.58,weatherlink.com 1.10,2013-09-22 14:20:00,
2013-09-22 10:36:00,58.0,52.0,29.65,NNE,31,3.0,10.0,80,0.00,,,0.58,weatherlink.com 1.10,2013-09-22 14:36:00,
2013-09-22 10:53:00,57.9,52.0,29.65,NNE,33,2.0,15.0,82,0.00,,,0.58,weatherlink.com 1.10,2013-09-22 14:53:00,
2013-09-22 11:09:00,58.8,53.0,29.64,WSW,240,4.0,11.0,80,0.00,,,0.58,weatherlink.com 1.10,2013-09-22 15:09:00,
2013-09-22 11:25:00,59.1,52.0,29.64,SW,235,8.0,12.0,76,0.00,,,0.58,weatherlink.com 1.10,2013-09-22 15:25:00,
2013-09-22 11:42:00,59.9,51.0,29.64,SW,233,3.0,12.0,73,0.00,,,0.58,weatherlink.com 1.10,2013-09-22 15:42:00,
2013-09-22 11:58:00,59.3,51.0,29.65,WNW,290,6.0,9.0,73,0.00,,,0.58,weatherlink.com 1.10,2013-09-22 15:58:00,
2013-09-22 12:14:00,61.1,53.0,29.65,West,271,3.0,9.0,74,0.00,,,0.58,weatherlink.com 1.10,2013-09-22 16:14:00,
2013-09-22 12:30:00,59.1,50.0,29.66,West,280,4.0,12.0,73,0.00,,,0.58,weatherlink.com 1.10,2013-09-22 16:30:00,
2013-09-22 12:47:00,59.5,50.0,29.66,SW,232,2.0,12.0,71,0.00,,,0.58,weatherlink.com 1.10,2013-09-22 16:47:00,
2013-09-22 13:03:00,59.2,50.0,29.66,WSW,241,1.0,17.0,72,0.00,,,0.58,weatherlink.com 1.10,2013-09-22 17:03:00,
2013-09-22 13:19:00,59.5,50.0,29.66,WSW,252,4.0,11.0,72,0.00,,,0.58,weatherlink.com 1.10,2013-09-22 17:19:00,
2013-09-22 13:35:00,60.0,51.0,29.66,WNW,287,3.0,9.0,72,0.00,,,0.58,weatherlink.com 1.10,2013-09-22 17:35:00,
2013-09-22 13:52:00,60.1,50.0,29.66,NNW,329,3.0,12.0,70,0.00,,,0.58,weatherlink.com 1.10,2013-09-22 17:52:00,
2013-09-22 14:08:00,60.8,51.0,29.66,WSW,242,7.0,10.0,69,0.00,,,0.58,weatherlink.com 1.10,2013-09-22 18:08:00,
2013-09-22 14:25:00,59.9,50.0,29.66,WNW,289,5.0,13.0,70,0.00,,,0.58,weatherlink.com 1.10,2013-09-22 18:25:00,
2013-09-22 14:41:00,59.6,51.0,29.66,WSW,244,11.0,13.0,72,0.00,,,0.58,weatherlink.com 1.10,2013-09-22 18:41:00,
2013-09-22 14:57:00,58.8,52.0,29.66,North,360,1.0,9.0,77,0.00,,,0.58,weatherlink.com 1.10,2013-09-22 18:57:00,
2013-09-22 15:14:00,58.2,51.0,29.66,WSW,239,3.0,14.0,77,0.00,,,0.58,weatherlink.com 1.10,2013-09-22 19:14:00,
2013-09-22 15:30:00,57.8,51.0,29.67,SW,236,6.0,13.0,77,0.00,,,0.58,weatherlink.com 1.10,2013-09-22 19:30:00,
2013-09-22 15:46:00,57.7,51.0,29.67,WNW,291,4.0,10.0,78,0.00,,,0.58,weatherlink.com 1.10,2013-09-22 19:46:00,
2013-09-22 16:03:00,58.0,51.0,29.67,West,269,4.0,13.0,78,0.00,,,0.58,weatherlink.com 1.10,2013-09-22 20:03:00,
2013-09-22 16:35:00,54.8,50.0,29.70,NNW,332,10.0,16.0,83,0.00,,,0.58,weatherlink.com 1.10,2013-09-22 20:35:00,
2013-09-22 16:51:00,54.2,49.0,29.71,NNW,341,4.0,12.0,84,0.00,,,0.58,weatherlink.com 1.10,2013-09-22 20:51:00,
2013-09-22 17:08:00,54.0,50.0,29.71,NNW,336,2.0,9.0,86,0.00,,,0.58,weatherlink.com 1.10,2013-09-22 21:08:00,
2013-09-22 17:24:00,54.3,49.0,29.71,NNW,329,3.0,12.0,83,0.00,,,0.58,weatherlink.com 1.10,2013-09-22 21:24:00,
2013-09-22 17:40:00,54.6,50.0,29.72,NW,308,2.0,11.0,83,0.00,,,0.58,weatherlink.com 1.10,2013-09-22 21:40:00,
2013-09-22 17:56:00,53.9,49.0,29.73,West,273,2.0,8.0,83,0.00,,,0.58,weatherlink.com 1.10,2013-09-22 21:56:00,
2013-09-22 18:13:00,53.3,49.0,29.73,NNE,12,3.0,10.0,84,0.00,,,0.58,weatherlink.com 1.10,2013-09-22 22:13:00,
2013-09-22 18:29:00,52.1,47.0,29.74,NW,324,1.0,12.0,83,0.00,,,0.58,weatherlink.com 1.10,2013-09-22 22:29:00,
2013-09-22 18:45:00,51.5,48.0,29.75,WNW,302,5.0,9.0,87,0.00,,,0.58,weatherlink.com 1.10,2013-09-22 22:45:00,
2013-09-22 19:01:00,51.1,47.0,29.75,NW,316,3.0,7.0,87,0.00,,,0.58,weatherlink.com 1.10,2013-09-22 23:01:00,
2013-09-22 19:17:00,50.9,47.0,29.76,NW,306,1.0,5.0,88,0.00,,,0.58,weatherlink.com 1.10,2013-09-22 23:17:00,
2013-09-22 19:34:00,50.8,47.0,29.77,West,268,1.0,7.0,88,0.00,,,0.58,weatherlink.com 1.10,2013-09-22 23:34:00,
2013-09-22 19:50:00,50.6,47.0,29.77,NW,312,1.0,7.0,88,0.00,,,0.58,weatherlink.com 1.10,2013-09-22 23:50:00,
2013-09-22 20:06:00,50.6,47.0,29.78,NNW,332,3.0,8.0,86,0.00,,,0.58,weatherlink.com 1.10,2013-09-23 00:06:00,
2013-09-22 20:23:00,50.6,46.0,29.78,WNW,286,6.0,9.0,85,0.00,,,0.58,weatherlink.com 1.10,2013-09-23 00:23:00,
2013-09-22 20:39:00,50.6,46.0,29.79,WNW,301,4.0,8.0,84,0.00,,,0.58,weatherlink.com 1.10,2013-09-23 00:39:00,
2013-09-22 20:55:00,50.4,46.0,29.80,WNW,284,5.0,8.0,84,0.00,,,0.58,weatherlink.com 1.10,2013-09-23 00:55:00,
2013-09-22 21:11:00,49.7,45.0,29.81,NNW,339,4.0,11.0,83,0.00,,,0.58,weatherlink.com 1.10,2013-09-23 01:11:00,
2013-09-22 21:27:00,49.0,43.0,29.81,NNW,327,3.0,9.0,81,0.00,,,0.58,weatherlink.com 1.10,2013-09-23 01:27:00,
2013-09-22 21:44:00,48.4,43.0,29.82,NNE,15,8.0,9.0,82,0.00,,,0.58,weatherlink.com 1.10,2013-09-23 01:44:00,
2013-09-22 22:00:00,48.3,43.0,29.82,NE,36,4.0,7.0,83,0.00,,,0.58,weatherlink.com 1.10,2013-09-23 02:00:00,
2013-09-22 22:33:00,47.9,43.0,29.83,NNW,343,2.0,7.0,84,0.00,,,0.58,weatherlink.com 1.10,2013-09-23 02:33:00,
2013-09-22 22:49:00,47.7,43.0,29.83,NW,305,2.0,7.0,85,0.00,,,0.58,weatherlink.com 1.10,2013-09-23 02:49:00,
2013-09-22 23:05:00,47.4,43.0,29.84,WNW,291,5.0,9.0,85,0.00,,,0.58,weatherlink.com 1.10,2013-09-23 03:05:00,
2013-09-22 23:21:00,46.9,43.0,29.84,WNW,301,1.0,6.0,86,0.00,,,0.58,weatherlink.com 1.10,2013-09-23 03:21:00,
2013-09-22 23:38:00,46.5,43.0,29.84,WNW,297,2.0,6.0,87,0.00,,,0.58,weatherlink.com 1.10,2013-09-23 03:38:00,
2013-09-22 23:54:00,45.8,42.0,29.84,North,351,2.0,9.0,87,0.00,,,0.58,weatherlink.com 1.10,2013-09-23 03:54:00,